Time;durP1;ratioP1;P1;durP2;ratioP2;P2;SDS_P1;SDS_P2;PMS_P1;PMS_P2;Temp;Humidity;BMP_temperature;BMP_pressure;BME280_temperature;BME280_humidity;BME280_pressure;Samples;Min_cycle;Max_cycle;Signal;HPM_P1;HPM_P2
2023/03/21 00:01:38;;;;;;;10.80;4.93;;;;;;;9.41;87.70;101159.94;5037078;28;20481;-69
2023/03/21 00:04:05;;;;;;;12.30;5.10;;;;;;;9.46;88.00;101154.50;5037063;28;20471;-70
2023/03/21 00:06:31;;;;;;;12.63;5.00;;;;;;;9.48;88.46;101149.63;5037170;28;20454;-70
2023/03/21 00:08:58;;;;;;;11.27;5.00;;;;;;;9.49;88.43;101154.75;5036886;28;20512;-70
2023/03/21 00:11:24;;;;;;;8.07;3.90;;;;;;;9.49;88.98;101153.94;5036401;28;20865;-70
2023/03/21 00:13:52;;;;;;;9.77;4.13;;;;;;;9.49;89.84;101148.53;5036288;28;20946;-68
2023/03/21 00:16:20;;;;;;;11.00;4.97;;;;;;;9.50;90.70;101155.56;5036538;28;20948;-69
2023/03/21 00:18:51;;;;;;;9.23;4.93;;;;;;;9.49;89.78;101143.13;5036497;28;20940;-70
2023/03/21 00:21:19;;;;;;;17.43;5.60;;;;;;;9.48;89.81;101138.81;5036698;28;20446;-70
2023/03/21 00:23:47;;;;;;;13.70;6.00;;;;;;;9.49;89.20;101146.63;5036503;28;20463;-69
2023/03/21 00:26:16;;;;;;;13.83;5.20;;;;;;;9.40;88.80;101142.09;5036666;28;20488;-70
2023/03/21 00:28:43;;;;;;;19.07;6.27;;;;;;;9.48;89.01;101142.31;5036327;28;20474;-70
2023/03/21 00:31:10;;;;;;;22.00;7.00;;;;;;;9.54;88.31;101143.09;5036105;28;21089;-70
2023/03/21 00:33:38;;;;;;;11.27;5.47;;;;;;;9.57;87.17;101142.53;5036317;28;20470;-70
2023/03/21 00:36:06;;;;;;;9.73;5.30;;;;;;;9.52;87.35;101140.69;5035936;28;21011;-70
2023/03/21 00:38:33;;;;;;;11.53;5.93;;;;;;;9.50;86.03;101140.13;5036267;28;20478;-71
2023/03/21 00:41:00;;;;;;;10.70;5.13;;;;;;;9.53;85.96;101130.66;5036259;28;20435;-70
2023/03/21 00:43:28;;;;;;;11.80;6.50;;;;;;;9.54;85.92;101134.97;5036330;28;20542;-68
2023/03/21 00:45:57;;;;;;;16.83;6.00;;;;;;;9.54;86.77;101134.97;5036191;28;20443;-69
2023/03/21 00:48:24;;;;;;;14.17;6.53;;;;;;;9.53;86.06;101136.06;5036022;28;20446;-68
2023/03/21 00:50:53;;;;;;;11.27;5.70;;;;;;;9.53;85.76;101136.06;5035854;28;20548;-68
2023/03/21 00:53:20;;;;;;;16.43;7.30;;;;;;;9.49;85.56;101129.59;5035742;28;20459;-68
2023/03/21 00:55:47;;;;;;;12.80;5.70;;;;;;;9.53;86.01;101130.66;5035818;28;20871;-69
2023/03/21 00:58:14;;;;;;;15.10;7.53;;;;;;;9.48;85.57;101133.41;5035605;28;20522;-69
2023/03/21 01:00:41;;;;;;;16.80;6.87;;;;;;;9.41;86.18;101122.06;5035833;28;20478;-68
2023/03/21 01:03:10;;;;;;;13.97;6.07;;;;;;;9.37;87.14;101126.44;5035792;28;20579;-68
2023/03/21 01:08:27;;;;;;;14.83;6.50;;;;;;;9.29;87.30;101128.63;5035473;28;20568;-68
2023/03/21 01:10:54;;;;;;;15.97;6.73;;;;;;;9.26;88.22;101126.50;5035781;28;20479;-68
2023/03/21 01:13:23;;;;;;;17.80;7.10;;;;;;;9.27;87.53;101121.88;5035574;28;20486;-68
2023/03/21 01:15:52;;;;;;;13.50;6.70;;;;;;;9.22;88.57;101120.03;5035336;28;20451;-68
2023/03/21 01:18:22;;;;;;;16.60;6.60;;;;;;;9.26;88.84;101121.09;5035573;28;20965;-69
2023/03/21 01:20:49;;;;;;;13.67;6.90;;;;;;;9.27;89.18;101122.69;5035728;28;20538;-70
2023/03/21 01:23:16;;;;;;;11.73;6.27;;;;;;;9.21;89.79;101122.97;5035342;28;20557;-66
2023/03/21 01:25:44;;;;;;;16.37;7.67;;;;;;;9.26;89.80;101121.09;5035467;28;20442;-72
2023/03/21 01:28:11;;;;;;;17.23;7.10;;;;;;;9.27;89.43;101120.00;5035122;28;20979;-69
2023/03/21 01:30:37;;;;;;;13.87;6.50;;;;;;;9.27;89.97;101119.19;5035343;28;20451;-69
2023/03/21 01:33:04;;;;;;;17.67;7.17;;;;;;;9.27;90.04;101117.28;5035285;28;20621;-68
2023/03/21 01:35:31;;;;;;;17.57;7.03;;;;;;;9.25;91.44;101124.88;5034884;28;20451;-69
2023/03/21 01:37:58;;;;;;;21.07;8.93;;;;;;;9.25;89.93;101130.28;5035508;28;20530;-68
2023/03/21 01:40:27;;;;;;;20.00;8.60;;;;;;;9.25;89.13;101119.47;5035292;28;20443;-70
2023/03/21 01:42:55;;;;;;;19.27;9.57;;;;;;;9.24;88.93;101115.13;5035125;28;20925;-70
2023/03/21 01:45:58;;;;;;;28.43;9.87;;;;;;;9.25;88.52;101114.06;5034730;28;20997;-70
2023/03/21 01:48:27;;;;;;;22.13;10.67;;;;;;;9.27;87.78;101109.19;5034760;28;20887;-68
2023/03/21 01:50:53;;;;;;;22.70;8.47;;;;;;;9.30;87.70;101115.94;5034987;28;20510;-69
2023/03/21 01:53:27;;;;;;;21.03;9.70;;;;;;;9.29;88.21;101117.00;5034599;28;21003;-69
2023/03/21 01:55:54;;;;;;;24.93;10.47;;;;;;;9.28;88.21;101118.09;5034857;28;20549;-69
2023/03/21 01:58:22;;;;;;;27.30;11.70;;;;;;;9.30;88.18;101115.94;5034777;28;20443;-69
2023/03/21 02:00:52;;;;;;;23.33;9.40;;;;;;;9.32;87.65;101113.75;5034439;28;20953;-69
2023/03/21 02:03:19;;;;;;;18.73;8.97;;;;;;;9.33;87.74;101116.16;5034269;28;20467;-69
2023/03/21 02:05:52;;;;;;;28.10;11.47;;;;;;;9.30;88.46;101113.22;5034636;28;20440;-69
2023/03/21 02:08:19;;;;;;;20.67;10.00;;;;;;;9.27;88.18;101117.28;5034564;28;20419;-69
2023/03/21 02:10:48;;;;;;;21.67;11.00;;;;;;;9.26;88.40;101109.47;5034068;28;20458;-70
2023/03/21 02:13:15;;;;;;;30.07;10.33;;;;;;;9.27;88.20;101108.38;5033950;28;20538;-69
2023/03/21 02:15:49;;;;;;;26.63;10.77;;;;;;;9.26;88.53;101107.56;5033902;28;20432;-69
2023/03/21 02:18:25;;;;;;;18.30;10.57;;;;;;;9.25;88.74;101111.38;5034425;28;20431;-69
2023/03/21 02:21:24;;;;;;;23.43;10.00;;;;;;;9.21;89.07;101104.91;5034382;28;20426;-69
2023/03/21 02:24:22;;;;;;;25.80;10.70;;;;;;;9.21;89.34;101109.47;5034186;28;20860;-69
2023/03/21 02:27:12;;;;;;;19.80;10.73;;;;;;;9.22;88.91;101103.81;5030802;28;20543;-69
2023/03/21 02:30:16;;;;;;;27.97;13.00;;;;;;;9.17;89.50;101105.75;5030228;28;20542;-69
2023/03/21 02:33:03;;;;;;;23.83;11.30;;;;;;;9.12;90.49;101101.16;5030679;28;21011;-69
2023/03/21 02:35:48;;;;;;;25.77;12.53;;;;;;;9.19;90.62;101100.84;5034120;28;20477;-69
2023/03/21 02:38:21;;;;;;;27.90;12.07;;;;;;;9.23;90.28;101104.63;5033962;28;20435;-69
2023/03/21 02:40:53;;;;;;;22.83;12.30;;;;;;;9.20;90.03;101100.56;5033872;28;20467;-69
2023/03/21 02:43:27;;;;;;;24.53;11.60;;;;;;;9.13;90.76;101100.06;5033922;28;20481;-69
2023/03/21 02:46:01;;;;;;;24.40;11.80;;;;;;;9.09;91.57;101102.53;5033920;28;20475;-69
2023/03/21 02:48:34;;;;;;;22.03;11.40;;;;;;;9.14;90.33;101098.97;5033847;28;20431;-69
2023/03/21 02:51:05;;;;;;;24.03;11.77;;;;;;;9.09;91.68;101107.13;5033804;28;20438;-69
2023/03/21 02:53:37;;;;;;;21.60;11.00;;;;;;;9.03;91.93;101106.34;5033140;28;20538;-67
2023/03/21 02:56:09;;;;;;;25.80;12.33;;;;;;;9.01;91.70;101103.09;5033740;28;20443;-68
2023/03/21 02:58:38;;;;;;;18.97;11.00;;;;;;;9.07;91.96;101098.47;5033670;28;20856;-70
2023/03/21 03:01:07;;;;;;;23.43;12.30;;;;;;;9.08;91.94;101105.50;5033300;28;20941;-69
2023/03/21 03:03:35;;;;;;;25.20;11.83;;;;;;;9.10;91.95;101114.13;5033692;28;20462;-69
2023/03/21 03:06:07;;;;;;;24.97;10.37;;;;;;;9.06;92.01;101104.97;5033632;28;20494;-69
2023/03/21 03:08:43;;;;;;;24.97;11.10;;;;;;;8.98;92.99;101109.03;5033428;28;20926;-69
2023/03/21 03:11:23;;;;;;;23.40;11.97;;;;;;;8.98;93.10;101110.94;5033442;28;20530;-69
2023/03/21 03:14:01;;;;;;;24.33;10.17;;;;;;;8.92;94.96;101112.88;5076449;22;20584;-63
2023/03/21 03:16:36;;;;;;;25.90;10.77;;;;;;;8.94;94.72;101107.16;5073284;28;20429;-65
2023/03/21 03:19:07;;;;;;;22.53;10.70;;;;;;;8.88;95.64;101106.41;5073185;28;20428;-65
2023/03/21 03:21:41;;;;;;;21.97;10.90;;;;;;;8.87;95.68;101102.09;5073201;28;20426;-65
2023/03/21 03:24:11;;;;;;;21.90;10.77;;;;;;;8.85;96.77;101104.25;5073104;28;20461;-65
2023/03/21 03:26:44;;;;;;;17.40;9.27;;;;;;;8.91;96.72;101099.66;5072825;28;20464;-65
2023/03/21 03:29:15;;;;;;;25.50;10.50;;;;;;;8.89;96.41;101104.50;5072623;28;20945;-65
2023/03/21 03:31:46;;;;;;;21.20;10.63;;;;;;;8.85;96.55;101104.25;5072620;28;20457;-65
2023/03/21 03:34:19;;;;;;;23.57;10.97;;;;;;;8.81;96.79;101109.41;5073112;28;20461;-65
2023/03/21 03:36:54;;;;;;;21.53;9.87;;;;;;;8.80;96.77;101102.38;5073004;28;20465;-65
2023/03/21 03:39:26;;;;;;;22.07;11.70;;;;;;;8.82;97.27;101102.09;5073085;28;20485;-65
2023/03/21 03:41:58;;;;;;;21.23;10.57;;;;;;;8.77;97.84;101107.53;5072950;28;20512;-68
2023/03/21 03:44:27;;;;;;;20.63;10.23;;;;;;;8.78;98.52;101115.34;5073004;28;20492;-66
2023/03/21 03:46:58;;;;;;;29.80;11.43;;;;;;;8.84;98.77;101108.03;5072943;28;20449;-66
2023/03/21 03:49:29;;;;;;;23.63;10.60;;;;;;;8.94;98.71;101105.31;5073002;28;20517;-67
2023/03/21 03:52:01;;;;;;;26.67;10.97;;;;;;;8.97;97.70;101112.03;5072893;28;20472;-67
2023/03/21 03:54:33;;;;;;;24.30;10.83;;;;;;;8.96;96.80;101115.81;5072823;28;20543;-66
2023/03/21 03:57:00;;;;;;;24.77;11.03;;;;;;;8.96;97.06;101113.13;5072928;28;20495;-64
2023/03/21 03:59:27;;;;;;;23.80;10.60;;;;;;;8.95;97.13;101108.81;5072929;28;20810;-66
2023/03/21 04:01:53;;;;;;;21.20;10.60;;;;;;;8.87;98.19;101107.50;5072807;28;20441;-65
2023/03/21 04:04:21;;;;;;;24.33;12.13;;;;;;;8.93;97.47;101100.16;5072752;28;20880;-66
2023/03/21 04:06:50;;;;;;;23.57;10.37;;;;;;;8.92;97.23;101099.34;5072838;28;20867;-66
2023/03/21 04:09:17;;;;;;;23.00;10.90;;;;;;;8.93;96.70;101108.25;5072824;28;20484;-66
2023/03/21 04:11:45;;;;;;;24.57;12.23;;;;;;;8.87;97.31;101107.50;5072287;28;21077;-66
2023/03/21 04:14:12;;;;;;;28.07;10.40;;;;;;;8.87;97.23;101112.09;5072468;28;20503;-66
2023/03/21 04:16:38;;;;;;;22.77;10.37;;;;;;;8.78;97.77;101107.25;5072327;28;21001;-66
2023/03/21 04:19:05;;;;;;;25.03;11.93;;;;;;;8.79;98.10;101105.34;5072487;28;20934;-66
2023/03/21 04:21:32;;;;;;;26.83;11.63;;;;;;;8.78;98.58;101099.16;5072555;28;20942;-69
2023/03/21 04:23:58;;;;;;;29.93;10.70;;;;;;;8.79;98.09;101106.16;5072593;28;20535;-66
2023/03/21 04:26:31;;;;;;;27.87;10.50;;;;;;;8.79;98.05;101100.75;5072626;28;20799;-66
2023/03/21 04:29:00;;;;;;;25.37;11.00;;;;;;;8.77;97.95;101100.25;5072711;28;20432;-66
2023/03/21 04:31:29;;;;;;;23.83;10.63;;;;;;;8.78;97.74;101104.53;5072465;28;20536;-66
2023/03/21 04:33:58;;;;;;;22.30;9.97;;;;;;;8.75;98.89;101101.59;5072411;28;20469;-66
2023/03/21 04:36:26;;;;;;;19.47;10.20;;;;;;;8.80;98.80;101096.97;5072166;28;20438;-66
2023/03/21 04:38:53;;;;;;;24.57;10.77;;;;;;;8.83;98.96;101101.81;5073716;28;20445;-66
2023/03/21 04:41:20;;;;;;;23.83;11.13;;;;;;;8.80;98.97;101102.38;5075917;28;20483;-66
2023/03/21 04:43:47;;;;;;;21.23;10.50;;;;;;;8.82;98.71;101097.50;5075708;28;20548;-66
2023/03/21 04:46:15;;;;;;;23.37;11.07;;;;;;;8.82;99.08;101104.81;5076056;28;20934;-65
2023/03/21 04:48:41;;;;;;;19.97;9.67;;;;;;;8.82;99.17;101099.41;5075989;28;20834;-68
2023/03/21 04:51:08;;;;;;;26.40;11.13;;;;;;;8.85;99.19;101104.25;5076056;28;20480;-68
2023/03/21 04:53:34;;;;;;;26.73;11.10;;;;;;;8.84;99.68;101099.94;5075966;28;20484;-66
2023/03/21 04:56:02;;;;;;;21.40;10.10;;;;;;;8.87;99.48;101095.88;5075810;28;20552;-66
2023/03/21 04:58:29;;;;;;;22.80;10.60;;;;;;;8.93;99.18;101108.25;5075822;28;20520;-66
2023/03/21 05:00:56;;;;;;;25.87;11.17;;;;;;;8.90;99.45;101106.94;5075920;28;20442;-66
2023/03/21 05:03:24;;;;;;;23.43;11.10;;;;;;;8.92;99.31;101106.66;5075870;28;20466;-66
2023/03/21 05:05:51;;;;;;;21.40;9.83;;;;;;;8.86;99.86;101099.66;5075636;28;20437;-66
2023/03/21 05:08:17;;;;;;;25.50;12.00;;;;;;;8.86;100.00;101095.06;5075455;28;20532;-65
2023/03/21 05:10:44;;;;;;;20.93;9.23;;;;;;;8.84;99.92;101099.94;5075528;28;20796;-66
2023/03/21 05:13:11;;;;;;;23.33;10.90;;;;;;;8.80;100.00;101096.97;5075290;28;20500;-66
2023/03/21 05:15:37;;;;;;;27.73;11.83;;;;;;;8.77;100.00;101102.94;5075230;28;20508;-67
2023/03/21 05:18:10;;;;;;;26.17;12.00;;;;;;;8.77;100.00;101104.84;5075410;28;20494;-66
2023/03/21 05:20:41;;;;;;;26.80;11.10;;;;;;;8.76;100.00;101098.59;5075068;28;20798;-66
2023/03/21 05:23:09;;;;;;;23.23;10.90;;;;;;;8.68;100.00;101101.91;5075388;28;20493;-66
2023/03/21 05:25:36;;;;;;;33.30;10.37;;;;;;;8.62;100.00;101097.56;5075293;28;20456;-66
2023/03/21 05:28:04;;;;;;;24.73;9.13;;;;;;;8.56;100.00;101094.09;5075219;28;20503;-66
2023/03/21 05:30:31;;;;;;;22.17;10.07;;;;;;;8.57;100.00;101094.91;5075141;28;20476;-66
2023/03/21 05:32:57;;;;;;;26.77;11.57;;;;;;;8.61;100.00;101100.56;5074929;28;20493;-65
2023/03/21 05:35:24;;;;;;;25.17;11.03;;;;;;;8.62;100.00;101092.19;5075033;28;20455;-66
2023/03/21 05:37:52;;;;;;;28.60;11.30;;;;;;;8.61;100.00;101093.25;5075313;28;20457;-66
2023/03/21 05:40:20;;;;;;;22.13;10.20;;;;;;;8.63;100.00;101091.09;5074992;28;20532;-66
2023/03/21 05:42:47;;;;;;;23.57;9.90;;;;;;;8.66;100.00;101093.25;5074938;28;20437;-65
2023/03/21 05:45:14;;;;;;;22.00;9.63;;;;;;;8.67;100.00;101094.84;5074977;28;20437;-66
2023/03/21 05:47:41;;;;;;;24.67;11.37;;;;;;;8.69;100.00;101095.41;5074974;28;20445;-66
2023/03/21 05:50:09;;;;;;;28.73;12.50;;;;;;;8.70;100.00;101090.81;5074106;28;20491;-66
2023/03/21 05:52:35;;;;;;;31.87;12.43;;;;;;;8.69;100.00;101095.41;5074699;28;20858;-66
2023/03/21 05:55:04;;;;;;;38.13;13.70;;;;;;;8.73;100.00;101099.16;5074718;28;20509;-63
2023/03/21 05:57:33;;;;;;;21.30;9.80;;;;;;;8.75;100.00;101091.59;5074311;28;20528;-65
2023/03/21 06:00:00;;;;;;;25.20;11.93;;;;;;;8.78;100.00;101098.34;5074700;28;20446;-65
2023/03/21 06:02:27;;;;;;;33.07;12.70;;;;;;;8.79;100.00;101095.34;5074305;28;20474;-66
2023/03/21 06:04:54;;;;;;;23.43;11.03;;;;;;;8.78;100.00;101107.25;5074417;28;20462;-64
2023/03/21 06:07:20;;;;;;;29.37;11.53;;;;;;;8.74;100.00;101102.69;5074043;28;20484;-66
2023/03/21 06:09:47;;;;;;;21.67;10.37;;;;;;;8.70;100.00;101107.81;5074093;28;20978;-66
2023/03/21 06:12:15;;;;;;;22.70;9.90;;;;;;;8.74;100.00;101100.78;5074186;28;20568;-67
2023/03/21 06:14:41;;;;;;;29.63;12.60;;;;;;;8.78;100.00;101104.53;5073772;28;20469;-64
2023/03/21 06:17:08;;;;;;;30.90;12.80;;;;;;;8.84;100.00;101103.44;5073984;28;20946;-65
2023/03/21 06:19:35;;;;;;;29.10;11.70;;;;;;;8.89;100.00;101107.19;5074161;28;20472;-67
2023/03/21 06:22:01;;;;;;;25.07;10.17;;;;;;;8.93;100.00;101108.25;5074155;28;20437;-66
2023/03/21 06:24:28;;;;;;;30.73;11.80;;;;;;;8.88;100.00;101111.81;5073985;28;21004;-64
2023/03/21 06:26:54;;;;;;;35.90;11.50;;;;;;;8.81;100.00;101120.22;5073731;28;20966;-66
2023/03/21 06:29:22;;;;;;;25.03;10.60;;;;;;;8.81;100.00;101114.81;5073792;28;20483;-66
2023/03/21 06:31:49;;;;;;;24.77;11.60;;;;;;;8.76;100.00;101112.09;5073590;28;20821;-67
2023/03/21 06:34:16;;;;;;;24.03;10.27;;;;;;;8.79;100.00;101113.47;5073394;28;20573;-66
2023/03/21 06:36:43;;;;;;;29.60;12.70;;;;;;;8.84;100.00;101108.84;5073653;28;20441;-66
2023/03/21 06:39:10;;;;;;;26.37;11.00;;;;;;;8.87;100.00;101114.78;5073861;28;20517;-66
2023/03/21 06:41:37;;;;;;;31.47;13.10;;;;;;;8.90;100.00;101120.44;5073801;28;20824;-67
2023/03/21 06:44:03;;;;;;;30.13;11.80;;;;;;;8.90;100.00;101111.50;5073639;28;20552;-67
2023/03/21 06:46:32;;;;;;;23.17;10.00;;;;;;;8.88;100.00;101111.81;5073680;28;20499;-66
2023/03/21 06:48:58;;;;;;;25.30;10.97;;;;;;;8.92;100.00;101112.06;5073740;28;20445;-66
2023/03/21 06:51:25;;;;;;;28.20;11.90;;;;;;;8.87;100.00;101104.78;5073768;28;20532;-66
2023/03/21 06:53:52;;;;;;;26.43;12.63;;;;;;;8.89;100.00;101105.31;5072986;28;21018;-66
2023/03/21 06:56:18;;;;;;;27.47;12.10;;;;;;;8.94;100.00;101118.81;5073551;28;20557;-66
2023/03/21 06:58:45;;;;;;;23.97;11.37;;;;;;;9.01;100.00;101118.50;5073642;28;20456;-66
2023/03/21 07:01:13;;;;;;;24.20;10.27;;;;;;;9.08;100.00;101113.63;5073084;28;20449;-67
2023/03/21 07:03:41;;;;;;;27.30;13.10;;;;;;;9.07;100.00;101112.81;5072630;28;20465;-68
2023/03/21 07:06:10;;;;;;;33.63;10.93;;;;;;;9.09;100.00;101117.94;5073362;28;20448;-67
2023/03/21 07:08:37;;;;;;;30.87;12.27;;;;;;;9.11;100.00;101113.03;5073300;28;20453;-67
2023/03/21 07:11:05;;;;;;;32.00;11.90;;;;;;;9.11;100.00;101118.44;5072952;28;20442;-65
2023/03/21 07:13:31;;;;;;;23.30;12.07;;;;;;;9.12;100.00;101117.38;5072851;28;20489;-67
2023/03/21 07:15:58;;;;;;;31.17;12.47;;;;;;;9.09;100.00;101126.84;5073199;28;20483;-67
2023/03/21 07:18:27;;;;;;;26.63;11.87;;;;;;;9.18;100.00;101127.06;5073156;28;20473;-66
2023/03/21 07:20:55;;;;;;;25.60;11.30;;;;;;;9.22;100.00;101125.44;5072897;28;20931;-67
2023/03/21 07:23:24;;;;;;;22.90;10.70;;;;;;;9.25;100.00;101130.28;5073010;28;20833;-66
2023/03/21 07:25:52;;;;;;;25.57;11.07;;;;;;;9.22;100.00;101125.44;5072753;28;20948;-67
2023/03/21 07:28:20;;;;;;;24.00;10.37;;;;;;;9.22;100.00;101124.63;5073114;28;20437;-67
2023/03/21 07:30:53;;;;;;;24.07;10.50;;;;;;;9.23;100.00;101120.81;5073334;28;20453;-66
2023/03/21 07:33:19;;;;;;;31.00;12.40;;;;;;;9.26;100.00;101121.09;5072719;28;20492;-66
2023/03/21 07:35:46;;;;;;;23.37;10.20;;;;;;;9.26;100.00;101131.09;5072802;28;20930;-66
2023/03/21 07:38:15;;;;;;;30.53;13.10;;;;;;;9.31;100.00;101129.16;5073064;28;20433;-66
2023/03/21 07:40:42;;;;;;;23.60;11.13;;;;;;;9.33;100.00;101132.38;5072839;28;20489;-66
2023/03/21 07:43:08;;;;;;;27.27;10.77;;;;;;;9.35;100.00;101124.81;5073348;28;20460;-66
2023/03/21 07:45:35;;;;;;;27.63;11.30;;;;;;;9.39;100.00;101133.19;5073182;28;20441;-67
2023/03/21 07:48:02;;;;;;;32.63;10.83;;;;;;;9.44;100.00;101126.94;5072536;28;20950;-66
2023/03/21 07:50:29;;;;;;;23.73;11.30;;;;;;;9.44;100.00;101137.75;5072953;28;20521;-66
2023/03/21 07:52:55;;;;;;;28.90;11.33;;;;;;;9.45;100.00;101129.34;5072441;28;20481;-67
2023/03/21 07:55:23;;;;;;;21.33;10.57;;;;;;;9.45;100.00;101132.06;5072602;28;20450;-66
2023/03/21 07:57:51;;;;;;;26.27;10.90;;;;;;;9.48;100.00;101128.78;5072863;28;20818;-66
2023/03/21 08:00:21;;;;;;;21.93;9.90;;;;;;;9.47;100.00;101120.94;5072592;28;20968;-67
2023/03/21 08:02:49;;;;;;;17.97;8.73;;;;;;;9.48;100.00;101125.28;5072806;28;20450;-67
2023/03/21 08:05:18;;;;;;;25.17;10.30;;;;;;;9.48;100.00;101123.38;5072846;28;20445;-66
2023/03/21 08:07:45;;;;;;;23.30;9.70;;;;;;;9.52;100.00;101126.34;5072829;28;20536;-65
2023/03/21 08:10:11;;;;;;;27.67;11.50;;;;;;;9.53;100.00;101119.84;5072476;28;20946;-66
2023/03/21 08:12:39;;;;;;;25.10;10.27;;;;;;;9.59;100.00;101119.50;5072234;28;21009;-67
2023/03/21 08:15:07;;;;;;;27.40;11.37;;;;;;;9.62;100.00;101118.16;5075941;28;20449;-65
2023/03/21 08:17:36;;;;;;;19.93;9.00;;;;;;;9.59;100.00;101124.13;5076811;28;20436;-65
2023/03/21 08:20:06;;;;;;;28.73;11.57;;;;;;;9.59;100.00;101124.13;5076566;28;20859;-65
2023/03/21 08:22:33;;;;;;;18.03;9.10;;;;;;;9.67;100.00;101115.41;5076198;28;20448;-67
2023/03/21 08:24:59;;;;;;;23.77;8.83;;;;;;;9.73;100.00;101119.69;5076479;28;20469;-65
2023/03/21 08:27:26;;;;;;;23.37;10.10;;;;;;;9.79;100.00;101123.19;5076404;28;20536;-67
2023/03/21 08:29:54;;;;;;;20.87;9.60;;;;;;;9.82;100.00;101120.69;5075977;28;20536;-67
2023/03/21 08:32:27;;;;;;;24.60;10.37;;;;;;;9.84;100.00;101121.22;5076067;28;21146;-68
2023/03/21 08:34:53;;;;;;;26.43;11.67;;;;;;;9.97;100.00;101124.38;5076034;28;21025;-67
2023/03/21 08:37:20;;;;;;;24.50;10.70;;;;;;;9.96;100.00;101125.47;5076227;28;20491;-67
2023/03/21 08:39:47;;;;;;;22.73;10.70;;;;;;;10.08;100.00;101123.19;5076123;28;20437;-68
2023/03/21 08:42:13;;;;;;;25.37;10.13;;;;;;;10.16;100.00;101121.78;5076173;28;20818;-67
2023/03/21 08:44:40;;;;;;;18.60;8.60;;;;;;;10.19;100.00;101118.50;5075705;28;20461;-67
2023/03/21 08:47:08;;;;;;;26.00;11.00;;;;;;;10.17;100.00;101124.19;5075739;28;20899;-70
2023/03/21 08:49:35;;;;;;;24.90;9.90;;;;;;;10.15;100.00;101122.88;5075940;28;20479;-69
2023/03/21 08:52:02;;;;;;;19.50;8.80;;;;;;;10.17;100.00;101124.19;5076010;28;20447;-69
2023/03/21 08:54:29;;;;;;;21.73;9.63;;;;;;;10.16;100.00;101125.28;5075477;28;20484;-69
2023/03/21 08:56:55;;;;;;;24.27;9.40;;;;;;;10.13;100.00;101123.16;5075956;28;20507;-69
2023/03/21 08:59:22;;;;;;;23.37;9.73;;;;;;;10.17;100.00;101118.78;5075833;28;20472;-69
2023/03/21 09:01:48;;;;;;;21.00;8.83;;;;;;;10.19;100.00;101126.63;5075557;28;20935;-69
2023/03/21 09:04:17;;;;;;;21.80;9.60;;;;;;;10.28;100.00;101122.25;5075631;28;20464;-69
2023/03/21 09:06:47;;;;;;;20.00;8.83;;;;;;;10.27;100.00;101128.72;5075754;28;20859;-69
2023/03/21 09:09:14;;;;;;;20.83;8.53;;;;;;;10.40;100.00;101119.13;5076171;28;20437;-69
2023/03/21 09:11:40;;;;;;;20.67;9.33;;;;;;;10.44;100.00;101118.28;5075820;28;20470;-69
2023/03/21 09:14:07;;;;;;;26.93;9.00;;;;;;;10.54;100.00;101122.81;5075312;28;20524;-69
2023/03/21 09:16:34;;;;;;;20.47;9.30;;;;;;;10.59;100.00;101117.31;5075554;28;20441;-70
2023/03/21 09:19:03;;;;;;;27.07;9.27;;;;;;;10.45;100.00;101119.91;5075289;28;20448;-69
2023/03/21 09:21:31;;;;;;;19.07;8.07;;;;;;;10.45;100.00;101128.03;5075140;28;20870;-70
2023/03/21 09:23:59;;;;;;;18.43;6.87;;;;;;;10.50;100.00;101127.97;5075394;28;20460;-69
2023/03/21 09:26:26;;;;;;;21.83;8.00;;;;;;;10.53;100.00;101126.56;5074555;28;20456;-68
2023/03/21 09:28:53;;;;;;;20.20;8.20;;;;;;;10.51;100.00;101124.16;5075025;28;21042;-69
2023/03/21 09:31:21;;;;;;;18.73;8.17;;;;;;;10.51;100.00;101123.38;5075192;28;20441;-69
2023/03/21 09:33:48;;;;;;;23.63;9.00;;;;;;;10.54;100.00;101125.50;5074837;28;20489;-69
2023/03/21 09:36:17;;;;;;;17.33;7.23;;;;;;;10.52;100.00;101124.97;5075222;28;20469;-69
2023/03/21 09:38:46;;;;;;;21.93;8.30;;;;;;;10.47;100.00;101125.84;5075156;28;20503;-69
2023/03/21 09:41:26;;;;;;;22.87;9.63;;;;;;;10.54;100.00;101115.47;5074823;28;20891;-70
2023/03/21 09:44:07;;;;;;;22.70;8.43;;;;;;;10.62;100.00;101127.56;5075100;28;20500;-67
2023/03/21 09:46:43;;;;;;;24.37;10.40;;;;;;;10.67;100.00;101119.41;5075073;28;20417;-68
2023/03/21 09:49:15;;;;;;;21.83;8.33;;;;;;;10.63;100.00;101120.28;5074784;28;20516;-68
2023/03/21 09:51:47;;;;;;;22.67;9.30;;;;;;;10.70;100.00;101116.09;5074873;28;20525;-67
2023/03/21 09:54:20;;;;;;;23.70;9.70;;;;;;;10.82;100.00;101113.00;5074413;28;20528;-67
2023/03/21 09:56:51;;;;;;;29.30;10.83;;;;;;;10.86;99.80;101114.84;5074739;28;20461;-68
2023/03/21 09:59:25;;;;;;;23.47;8.40;;;;;;;10.84;99.08;101117.00;5074824;28;20473;-68
2023/03/21 10:01:53;;;;;;;25.20;8.00;;;;;;;10.93;99.51;101110.94;5074809;28;20453;-67
2023/03/21 10:04:21;;;;;;;22.07;8.87;;;;;;;11.01;98.92;101113.81;5074598;28;20472;-68
2023/03/21 10:06:54;;;;;;;39.23;8.30;;;;;;;11.06;99.39;101110.25;5074650;28;20445;-68
2023/03/21 10:09:23;;;;;;;23.03;8.63;;;;;;;11.21;98.90;101111.97;5074701;28;20830;-68
2023/03/21 10:11:54;;;;;;;18.50;8.17;;;;;;;11.27;98.13;101106.16;5074535;28;20473;-68
2023/03/21 10:14:25;;;;;;;22.27;8.57;;;;;;;11.25;97.00;101099.44;5074242;28;20489;-68
2023/03/21 10:16:57;;;;;;;21.03;7.80;;;;;;;11.23;96.95;101088.84;5074179;28;20461;-67
2023/03/21 10:19:24;;;;;;;23.70;9.93;;;;;;;11.32;96.63;101089.81;5074488;28;20526;-68
2023/03/21 10:21:51;;;;;;;21.77;9.00;;;;;;;11.53;95.86;101084.91;5074172;28;20821;-68
2023/03/21 10:24:21;;;;;;;22.00;8.20;;;;;;;11.72;95.87;101081.34;5074257;28;20465;-68
2023/03/21 10:26:51;;;;;;;16.87;7.90;;;;;;;11.92;94.19;101089.19;5074272;28;20446;-68
2023/03/21 10:29:21;;;;;;;24.00;9.70;;;;;;;11.95;94.31;101090.50;5074190;28;20434;-68
2023/03/21 10:31:49;;;;;;;19.17;8.10;;;;;;;12.09;94.12;101086.72;5074124;28;20434;-70
2023/03/21 10:34:20;;;;;;;17.20;7.87;;;;;;;12.04;91.78;101091.41;5073594;28;20485;-70
2023/03/21 10:36:47;;;;;;;23.70;8.07;;;;;;;11.93;91.79;101088.09;5073970;28;20437;-68
2023/03/21 10:39:23;;;;;;;15.70;7.20;;;;;;;11.79;93.35;101085.31;5074003;28;20447;-67
2023/03/21 10:41:51;;;;;;;20.47;8.80;;;;;;;11.84;93.30;101084.44;5073649;28;20979;-68
2023/03/21 10:44:19;;;;;;;21.90;8.30;;;;;;;11.88;93.22;101079.22;5073560;28;20983;-68
2023/03/21 10:46:52;;;;;;;20.77;8.50;;;;;;;11.86;93.39;101083.06;5073863;28;20444;-68
2023/03/21 10:49:20;;;;;;;17.33;7.20;;;;;;;11.80;93.97;101078.75;5073643;28;20434;-68
2023/03/21 10:51:51;;;;;;;14.83;7.57;;;;;;;11.84;93.14;101074.38;5073856;28;20441;-68
2023/03/21 10:54:20;;;;;;;20.33;8.57;;;;;;;11.81;93.29;101082.28;5073588;28;20990;-67
2023/03/21 10:56:56;;;;;;;22.70;8.83;;;;;;;11.79;93.77;101077.16;5073701;28;20867;-68
2023/03/21 10:59:26;;;;;;;13.93;7.17;;;;;;;11.87;93.70;101081.13;5073409;28;20479;-68
2023/03/21 11:01:56;;;;;;;18.40;8.27;;;;;;;11.96;93.13;101081.25;5073559;28;20793;-68
2023/03/21 11:04:26;;;;;;;19.93;9.47;;;;;;;11.93;93.13;101076.41;5073533;28;20457;-68
2023/03/21 11:06:55;;;;;;;18.27;8.17;;;;;;;11.88;93.57;101074.59;5073806;28;20425;-68
2023/03/21 11:09:24;;;;;;;19.10;8.73;;;;;;;11.92;92.27;101074.81;5073532;28;20453;-68
2023/03/21 11:11:55;;;;;;;15.60;6.93;;;;;;;11.93;92.05;101071.78;5073199;28;20499;-68
2023/03/21 11:14:31;;;;;;;15.33;6.60;;;;;;;11.90;91.88;101068.88;5073168;28;20578;-68
2023/03/21 11:16:58;;;;;;;18.93;7.77;;;;;;;11.82;93.54;101067.59;5073450;28;20507;-68
2023/03/21 11:19:31;;;;;;;18.40;7.97;;;;;;;11.81;92.65;101072.22;5073073;28;20958;-68
2023/03/21 11:21:59;;;;;;;15.37;6.27;;;;;;;11.78;93.02;101061.97;5073120;28;20433;-68
2023/03/21 11:24:30;;;;;;;16.80;6.80;;;;;;;11.84;93.08;101055.38;5073357;28;20491;-68
2023/03/21 11:27:00;;;;;;;19.30;8.83;;;;;;;11.95;92.80;101058.72;5073105;28;20430;-68
2023/03/21 11:29:30;;;;;;;13.07;6.40;;;;;;;11.95;93.55;101057.91;5073733;28;20444;-68